Time;durP1;ratioP1;P1;durP2;ratioP2;P2;SDS_P1;SDS_P2;PMS_P1;PMS_P2;Temp;Humidity;BMP_temperature;BMP_pressure;BME280_temperature;BME280_humidity;BME280_pressure;Samples;Min_cycle;Max_cycle;Signal;HPM_P1;HPM_P2
2022/11/02 00:00:10;;;;;;;31.20;18.92;;;8.50;99.90;;;;;;2079215;28;20096;-76
2022/11/02 00:01:19;;;;;;;29.38;18.48;;;8.50;99.90;;;;;;2072627;28;20033;-76
2022/11/02 00:02:20;;;;;;;32.03;19.33;;;8.50;99.90;;;;;;2079821;28;20611;-76
2022/11/02 00:03:20;;;;;;;31.58;19.45;;;8.50;99.90;;;;;;2079726;28;20030;-76
2022/11/02 00:04:21;;;;;;;32.05;18.95;;;8.50;99.90;;;;;;2071264;28;20034;-75
2022/11/02 00:05:25;;;;;;;34.42;19.15;;;8.50;99.90;;;;;;2071931;28;20104;-76
2022/11/02 00:06:26;;;;;;;28.90;18.77;;;8.50;99.90;;;;;;2073068;28;20125;-75
2022/11/02 00:07:26;;;;;;;32.40;19.60;;;8.50;99.90;;;;;;2079924;28;20026;-77
2022/11/02 00:08:27;;;;;;;33.28;20.58;;;8.40;99.90;;;;;;2080120;28;20113;-76
2022/11/02 00:09:27;;;;;;;31.48;19.67;;;8.40;99.90;;;;;;2073070;28;20026;-76
2022/11/02 00:10:29;;;;;;;31.95;19.55;;;8.40;99.90;;;;;;2080598;28;20026;-75
2022/11/02 00:11:29;;;;;;;33.30;19.95;;;8.40;99.90;;;;;;2080068;28;20124;-76
2022/11/02 00:12:30;;;;;;;32.63;19.70;;;8.40;99.90;;;;;;2072120;28;20022;-75
2022/11/02 00:13:30;;;;;;;29.48;19.23;;;8.40;99.90;;;;;;2073611;28;20710;-75
2022/11/02 00:14:31;;;;;;;32.75;19.13;;;8.40;99.90;;;;;;2065274;28;20038;-76
2022/11/02 00:15:36;;;;;;;29.50;19.27;;;8.40;99.90;;;;;;2065687;28;20027;-74
2022/11/02 00:16:39;;;;;;;32.78;19.10;;;8.40;99.90;;;;;;2073933;28;20523;-77
2022/11/02 00:17:43;;;;;;;32.85;19.40;;;8.30;99.90;;;;;;2065597;28;20034;-74
2022/11/02 00:18:46;;;;;;;31.92;19.30;;;8.30;99.90;;;;;;2073842;28;20439;-76
2022/11/02 00:19:50;;;;;;;32.58;19.77;;;8.30;99.90;;;;;;2074736;28;20045;-77
2022/11/02 00:20:50;;;;;;;34.10;20.08;;;8.30;99.90;;;;;;2081766;28;20571;-76
2022/11/02 00:21:51;;;;;;;34.92;21.00;;;8.30;99.90;;;;;;2081723;28;20037;-74
2022/11/02 00:22:56;;;;;;;32.92;19.60;;;8.30;99.90;;;;;;2074499;28;20113;-74
2022/11/02 00:23:57;;;;;;;34.70;20.85;;;8.30;99.90;;;;;;2081829;28;20120;-74
2022/11/02 00:25:02;;;;;;;33.63;20.60;;;8.30;99.90;;;;;;2081465;28;20783;-76
2022/11/02 00:26:03;;;;;;;33.65;20.35;;;8.30;99.90;;;;;;2073749;28;20195;-75
2022/11/02 00:27:04;;;;;;;32.50;20.55;;;8.30;99.90;;;;;;2074023;28;20045;-76
2022/11/02 00:28:05;;;;;;;34.10;20.38;;;8.30;99.90;;;;;;2073919;28;20112;-75
2022/11/02 00:29:07;;;;;;;33.75;20.38;;;8.30;99.90;;;;;;2073795;28;20030;-75
2022/11/02 00:30:08;;;;;;;35.78;21.40;;;8.20;99.90;;;;;;2081863;28;20029;-75
2022/11/02 00:31:09;;;;;;;34.20;20.63;;;8.20;99.90;;;;;;2081611;28;20060;-75
2022/11/02 00:32:10;;;;;;;33.85;21.08;;;8.20;99.90;;;;;;2073911;28;20053;-74
2022/11/02 00:33:11;;;;;;;33.50;20.42;;;8.20;99.90;;;;;;2074250;28;20030;-74
2022/11/02 00:34:12;;;;;;;35.67;20.65;;;8.20;99.90;;;;;;2074082;28;20033;-76
2022/11/02 00:35:13;;;;;;;33.10;20.70;;;8.20;99.90;;;;;;2081614;28;20757;-75
2022/11/02 00:36:13;;;;;;;34.35;21.58;;;8.20;99.90;;;;;;2082390;28;20555;-77
2022/11/02 00:37:14;;;;;;;36.50;21.58;;;8.20;99.90;;;;;;2074455;28;20526;-73
2022/11/02 00:38:15;;;;;;;36.22;21.20;;;8.20;99.90;;;;;;2065994;28;20552;-76
2022/11/02 00:39:16;;;;;;;35.35;22.35;;;8.20;99.90;;;;;;2066077;28;20033;-75
2022/11/02 00:40:17;;;;;;;37.90;22.52;;;8.20;99.90;;;;;;2074584;28;20030;-76
2022/11/02 00:41:19;;;;;;;44.83;23.48;;;8.20;99.90;;;;;;2074355;28;20037;-76
2022/11/02 00:42:20;;;;;;;40.85;22.67;;;8.20;99.90;;;;;;2074334;28;20029;-77
2022/11/02 00:43:20;;;;;;;41.22;23.83;;;8.20;99.90;;;;;;2074639;28;20030;-75
2022/11/02 00:44:21;;;;;;;45.20;25.40;;;8.20;99.90;;;;;;2073330;28;20030;-77
2022/11/02 00:45:22;;;;;;;45.65;24.83;;;8.20;99.90;;;;;;2057751;28;20463;-75
2022/11/02 00:46:23;;;;;;;46.00;25.02;;;8.20;99.90;;;;;;2059593;28;20031;-76
2022/11/02 00:47:23;;;;;;;47.00;25.98;;;8.20;99.90;;;;;;2081257;28;20022;-76
2022/11/02 00:48:24;;;;;;;42.50;24.63;;;8.30;99.90;;;;;;2081877;28;20022;-74
2022/11/02 00:49:26;;;;;;;43.53;24.02;;;8.20;99.90;;;;;;2079467;28;20029;-74
2022/11/02 00:50:26;;;;;;;47.67;27.38;;;8.20;99.90;;;;;;2073747;28;20065;-74
2022/11/02 00:51:27;;;;;;;55.28;29.40;;;8.30;99.90;;;;;;2073287;28;20030;-74
2022/11/02 00:52:28;;;;;;;50.15;28.27;;;8.30;99.90;;;;;;2073643;28;20591;-74
2022/11/02 00:53:28;;;;;;;53.78;29.52;;;8.30;99.90;;;;;;2065748;28;20113;-75
2022/11/02 00:54:29;;;;;;;51.00;28.92;;;8.40;99.90;;;;;;2057259;28;20121;-74
2022/11/02 00:55:30;;;;;;;51.15;29.00;;;8.40;99.90;;;;;;2065449;28;20289;-75
2022/11/02 00:56:37;;;;;;;48.83;27.85;;;8.40;99.90;;;;;;2066313;28;20018;-74
2022/11/02 00:57:39;;;;;;;46.60;26.95;;;8.40;99.90;;;;;;2073639;28;20030;-75
2022/11/02 00:58:41;;;;;;;45.17;26.00;;;8.30;99.90;;;;;;2073734;28;20018;-75
2022/11/02 00:59:43;;;;;;;46.08;26.52;;;8.40;99.90;;;;;;2073901;28;20053;-74
2022/11/02 01:00:44;;;;;;;45.95;25.23;;;8.40;99.90;;;;;;2074185;28;20541;-75
2022/11/02 01:01:46;;;;;;;45.15;25.52;;;8.30;99.90;;;;;;2074132;28;20022;-74
2022/11/02 01:02:47;;;;;;;42.97;25.55;;;8.40;99.90;;;;;;2065992;28;20034;-74
2022/11/02 01:03:47;;;;;;;46.78;25.58;;;8.30;99.90;;;;;;2074151;28;20034;-74
2022/11/02 01:04:48;;;;;;;45.97;26.15;;;8.30;99.90;;;;;;2073795;28;20052;-76
2022/11/02 01:05:49;;;;;;;48.28;26.88;;;8.30;99.90;;;;;;2074072;28;20529;-76
2022/11/02 01:06:50;;;;;;;50.50;27.42;;;8.30;99.90;;;;;;2074614;28;20072;-75
2022/11/02 01:07:51;;;;;;;52.58;27.85;;;8.30;99.90;;;;;;2074314;28;20109;-76
2022/11/02 01:08:52;;;;;;;52.22;28.88;;;8.30;99.90;;;;;;2065939;28;20175;-76
2022/11/02 01:09:53;;;;;;;55.58;29.67;;;8.30;99.90;;;;;;2066085;28;20030;-76
2022/11/02 01:10:54;;;;;;;52.35;28.95;;;8.30;99.90;;;;;;2074355;28;20036;-76
2022/11/02 01:11:54;;;;;;;49.35;27.75;;;8.30;99.90;;;;;;2075649;28;20040;-76
2022/11/02 01:12:55;;;;;;;49.15;27.52;;;8.30;99.90;;;;;;2066980;28;20048;-76
2022/11/02 01:13:56;;;;;;;51.67;27.10;;;8.30;99.90;;;;;;2066102;28;20105;-76
2022/11/02 01:14:57;;;;;;;49.30;27.00;;;8.30;99.90;;;;;;2082821;28;20025;-76
2022/11/02 01:15:57;;;;;;;49.83;27.63;;;8.30;99.90;;;;;;2083037;28;20151;-76
2022/11/02 01:16:58;;;;;;;49.15;27.35;;;8.30;99.90;;;;;;2074948;28;20026;-76
2022/11/02 01:17:58;;;;;;;46.45;26.85;;;8.30;99.90;;;;;;2082382;28;20152;-76
2022/11/02 01:19:01;;;;;;;54.00;28.42;;;8.20;99.90;;;;;;2073792;28;20080;-75
2022/11/02 01:20:03;;;;;;;50.00;28.17;;;8.20;99.90;;;;;;2065241;28;20038;-76
2022/11/02 01:21:04;;;;;;;47.95;27.60;;;8.30;99.90;;;;;;2074946;28;20022;-76
2022/11/02 01:22:05;;;;;;;47.65;26.45;;;8.30;99.90;;;;;;2066638;28;20396;-75
2022/11/02 01:23:07;;;;;;;46.72;26.08;;;8.20;99.90;;;;;;2059857;28;20034;-75
2022/11/02 01:24:08;;;;;;;50.90;28.02;;;8.20;99.90;;;;;;2058857;28;20031;-77
2022/11/02 01:25:08;;;;;;;47.70;26.48;;;8.20;99.90;;;;;;2071455;28;20030;-78
2022/11/02 01:26:09;;;;;;;47.97;26.55;;;8.20;99.90;;;;;;2089751;28;20033;-76
2022/11/02 01:27:10;;;;;;;50.05;27.10;;;8.20;99.90;;;;;;2077937;28;20029;-74
2022/11/02 01:28:11;;;;;;;48.45;27.02;;;8.20;99.90;;;;;;2084890;28;20033;-73
2022/11/02 01:29:13;;;;;;;50.25;26.73;;;8.20;99.90;;;;;;2076470;28;20419;-73
2022/11/02 01:30:14;;;;;;;47.58;26.20;;;8.20;99.90;;;;;;2067866;28;20069;-75
2022/11/02 01:31:17;;;;;;;46.47;27.33;;;8.20;99.90;;;;;;2057623;28;20540;-76
2022/11/02 01:32:18;;;;;;;51.15;26.48;;;8.20;99.90;;;;;;2065271;28;20030;-76
2022/11/02 01:33:19;;;;;;;47.75;26.63;;;8.20;99.90;;;;;;2073008;28;20113;-76
2022/11/02 01:34:20;;;;;;;46.28;25.70;;;8.20;99.90;;;;;;2073482;28;20517;-75
2022/11/02 01:35:21;;;;;;;46.35;25.98;;;8.10;99.90;;;;;;2068450;28;20033;-75
2022/11/02 01:36:21;;;;;;;46.78;26.05;;;8.20;99.90;;;;;;2081165;28;20088;-75
2022/11/02 01:37:24;;;;;;;48.75;26.27;;;8.10;99.90;;;;;;2080537;28;20017;-75
2022/11/02 01:38:25;;;;;;;45.65;26.60;;;8.10;99.90;;;;;;2073313;28;20030;-75
2022/11/02 01:39:26;;;;;;;49.15;26.92;;;8.10;99.90;;;;;;2077024;28;20530;-75
2022/11/02 01:40:26;;;;;;;50.10;27.95;;;8.10;99.90;;;;;;2074657;28;20052;-74
2022/11/02 01:41:27;;;;;;;51.17;28.75;;;8.10;99.90;;;;;;2073487;28;20034;-75
2022/11/02 01:42:28;;;;;;;49.78;28.00;;;8.10;99.90;;;;;;2073577;28;20038;-76
2022/11/02 01:43:35;;;;;;;61.13;31.60;;;8.10;99.90;;;;;;2073335;28;20440;-76
2022/11/02 01:44:35;;;;;;;62.78;32.42;;;8.20;99.90;;;;;;2073298;28;20061;-75
2022/11/02 01:45:36;;;;;;;53.78;29.52;;;8.20;99.90;;;;;;2073133;28;20022;-74
2022/11/02 01:46:43;;;;;;;51.60;28.92;;;8.20;99.90;;;;;;2065240;28;20105;-75
2022/11/02 01:47:47;;;;;;;55.47;29.50;;;8.20;99.90;;;;;;2065712;28;20023;-75
2022/11/02 01:49:07;;;;;;;53.65;29.02;;;8.10;99.90;;;;;;2072997;28;20041;-75
2022/11/02 01:50:20;;;;;;;48.05;27.38;;;8.10;99.90;;;;;;2073791;28;20022;-75
2022/11/02 01:51:40;;;;;;;47.50;26.45;;;8.10;99.90;;;;;;2073002;28;20036;-75
2022/11/02 01:52:41;;;;;;;47.78;25.90;;;8.10;99.90;;;;;;2067437;28;20050;-75
2022/11/02 01:53:45;;;;;;;47.20;25.83;;;8.10;99.90;;;;;;2072721;28;20443;-74
2022/11/02 01:54:59;;;;;;;48.03;26.17;;;8.10;99.90;;;;;;2080867;28;20472;-74
2022/11/02 01:56:00;;;;;;;50.15;27.63;;;8.10;99.90;;;;;;2073823;28;20026;-74
2022/11/02 01:57:05;;;;;;;47.08;26.05;;;8.10;99.90;;;;;;2073681;28;20033;-73
2022/11/02 01:58:09;;;;;;;48.72;26.95;;;8.00;99.90;;;;;;2081094;28;20400;-74
2022/11/02 01:59:16;;;;;;;50.50;28.27;;;8.00;99.90;;;;;;2086029;28;20021;-75
2022/11/02 02:00:17;;;;;;;44.35;25.90;;;8.00;99.90;;;;;;2077981;28;20060;-75
2022/11/02 02:01:18;;;;;;;50.03;26.52;;;8.00;99.90;;;;;;2070653;28;20034;-75
2022/11/02 02:02:21;;;;;;;46.00;25.80;;;8.00;99.90;;;;;;2071144;28;20023;-75
2022/11/02 02:03:22;;;;;;;45.75;25.77;;;8.00;99.90;;;;;;2071725;28;20038;-74
2022/11/02 02:04:24;;;;;;;44.45;25.20;;;8.00;99.90;;;;;;2075232;28;20022;-74
2022/11/02 02:05:27;;;;;;;43.47;24.98;;;8.00;99.90;;;;;;2073357;28;20022;-73
2022/11/02 02:06:28;;;;;;;45.55;25.67;;;8.00;99.90;;;;;;2072929;28;20076;-75
2022/11/02 02:07:31;;;;;;;45.95;26.05;;;8.00;99.90;;;;;;2065291;28;20054;-74
2022/11/02 02:08:35;;;;;;;46.15;25.95;;;8.00;99.90;;;;;;2057880;28;20504;-74
2022/11/02 02:09:36;;;;;;;49.40;25.63;;;8.00;99.90;;;;;;2050066;28;20039;-74
2022/11/02 02:10:37;;;;;;;45.28;25.65;;;7.90;99.90;;;;;;2057568;28;20023;-75
2022/11/02 02:11:40;;;;;;;46.53;25.38;;;7.90;99.90;;;;;;2057127;28;20553;-76
2022/11/02 02:12:42;;;;;;;49.08;27.02;;;7.90;99.90;;;;;;2065377;28;20621;-75
2022/11/02 02:13:43;;;;;;;44.95;25.27;;;7.90;99.90;;;;;;2056923;28;20046;-74
2022/11/02 02:14:45;;;;;;;48.90;27.02;;;7.90;99.90;;;;;;2056636;28;20019;-75
2022/11/02 02:16:22;;;;;;;46.97;26.08;;;7.90;99.90;;;;;;2065211;28;20034;-75
2022/11/02 02:17:39;;;;;;;48.85;25.77;;;7.90;99.90;;;;;;2072827;28;20073;-74
2022/11/02 02:18:48;;;;;;;44.63;25.02;;;7.90;99.90;;;;;;2073517;28;20034;-75
2022/11/02 02:19:54;;;;;;;47.38;25.55;;;7.90;99.90;;;;;;2066392;28;20420;-76
2022/11/02 02:21:25;;;;;;;45.58;25.30;;;7.80;99.90;;;;;;2073111;28;20153;-75
2022/11/02 02:22:34;;;;;;;45.13;24.63;;;7.80;99.90;;;;;;2081503;28;20087;-74
2022/11/02 02:23:49;;;;;;;46.58;25.77;;;7.80;99.90;;;;;;2080060;28;20021;-74
2022/11/02 02:24:50;;;;;;;45.72;25.05;;;7.80;99.90;;;;;;2058481;28;20031;-74
2022/11/02 02:26:11;;;;;;;42.35;24.50;;;7.80;99.90;;;;;;2056878;28;20023;-73
2022/11/02 02:27:22;;;;;;;43.85;23.90;;;7.80;99.90;;;;;;2059841;28;20077;-74
2022/11/02 02:28:28;;;;;;;43.92;25.38;;;7.80;99.90;;;;;;2066400;28;20512;-75
2022/11/02 02:29:39;;;;;;;46.38;25.02;;;7.80;99.90;;;;;;2073810;28;20053;-75
2022/11/02 02:30:55;;;;;;;50.47;25.13;;;7.80;99.90;;;;;;2072955;28;20041;-75
2022/11/02 02:32:05;;;;;;;51.40;26.88;;;7.80;99.90;;;;;;2058904;28;20077;-75
2022/11/02 02:33:25;;;;;;;51.78;27.13;;;7.80;99.90;;;;;;2066094;28;20519;-74
2022/11/02 02:34:33;;;;;;;47.00;25.63;;;7.80;99.90;;;;;;2080739;28;20022;-75
2022/11/02 02:36:03;;;;;;;46.05;25.00;;;7.80;99.90;;;;;;2071743;28;20037;-76
2022/11/02 02:37:08;;;;;;;47.58;25.17;;;7.80;99.90;;;;;;2067834;28;20377;-75
2022/11/02 02:38:31;;;;;;;46.28;25.10;;;7.70;99.90;;;;;;2073367;28;20022;-74
2022/11/02 02:39:45;;;;;;;47.90;25.58;;;7.70;99.90;;;;;;2073229;28;20651;-75
2022/11/02 02:40:55;;;;;;;45.40;24.77;;;7.80;99.90;;;;;;2066948;28;20055;-75
2022/11/02 02:42:17;;;;;;;43.67;24.05;;;7.70;99.90;;;;;;2073291;28;20067;-76
2022/11/02 02:43:48;;;;;;;44.40;24.00;;;7.70;99.90;;;;;;2059882;28;20040;-75
2022/11/02 02:45:16;;;;;;;44.70;24.60;;;7.70;99.90;;;;;;2063579;28;20033;-74
2022/11/02 02:46:26;;;;;;;41.35;23.40;;;7.70;99.90;;;;;;2072428;28;20461;-74
2022/11/02 02:47:30;;;;;;;42.03;23.38;;;7.70;99.90;;;;;;2072380;28;20187;-74
2022/11/02 02:48:34;;;;;;;46.42;23.85;;;7.70;99.90;;;;;;2072712;28;20128;-75
2022/11/02 02:49:50;;;;;;;43.65;24.05;;;7.70;99.90;;;;;;2064583;28;20133;-75
2022/11/02 02:51:02;;;;;;;46.85;24.85;;;7.70;99.90;;;;;;2066230;28;20034;-75
2022/11/02 02:52:04;;;;;;;43.30;23.77;;;7.70;99.90;;;;;;2073315;28;20185;-74
2022/11/02 02:53:06;;;;;;;42.17;24.05;;;7.70;99.90;;;;;;2073070;28;20060;-75
2022/11/02 02:54:15;;;;;;;43.20;24.23;;;7.70;99.90;;;;;;2072241;28;20760;-75
2022/11/02 02:55:23;;;;;;;44.30;24.10;;;7.70;99.90;;;;;;2057519;28;20031;-75
2022/11/02 02:56:27;;;;;;;43.35;24.48;;;7.70;99.90;;;;;;2059245;28;20117;-74
2022/11/02 02:57:31;;;;;;;43.83;24.13;;;7.70;99.90;;;;;;2057658;28;20119;-74
2022/11/02 02:58:44;;;;;;;41.10;23.42;;;7.70;99.90;;;;;;2065422;28;20049;-75
2022/11/02 02:59:49;;;;;;;46.08;25.20;;;7.60;99.90;;;;;;2067184;28;20041;-75
2022/11/02 03:00:53;;;;;;;47.70;25.33;;;7.60;99.90;;;;;;2065838;28;20472;-76
2022/11/02 03:01:57;;;;;;;43.72;23.83;;;7.60;99.90;;;;;;2073034;28;20038;-74
2022/11/02 03:02:59;;;;;;;43.22;24.27;;;7.60;99.90;;;;;;2073948;28;20733;-74
2022/11/02 03:04:00;;;;;;;42.45;24.38;;;7.60;99.90;;;;;;2073548;28;20037;-74
2022/11/02 03:05:24;;;;;;;44.88;24.25;;;7.70;99.90;;;;;;2056664;28;20031;-75
2022/11/02 03:06:31;;;;;;;47.42;24.52;;;7.60;99.90;;;;;;2062386;28;20034;-74
2022/11/02 03:07:34;;;;;;;45.35;24.15;;;7.70;99.90;;;;;;2057957;28;20144;-74
2022/11/02 03:08:46;;;;;;;46.97;24.40;;;7.60;99.90;;;;;;2066064;28;20034;-74
2022/11/02 03:09:55;;;;;;;44.22;23.48;;;7.60;99.90;;;;;;2064635;28;20044;-73
2022/11/02 03:11:02;;;;;;;40.50;24.02;;;7.60;99.90;;;;;;2065445;28;20049;-74
2022/11/02 03:12:34;;;;;;;43.80;23.85;;;7.60;99.90;;;;;;2072620;28;20037;-76
2022/11/02 03:14:00;;;;;;;42.85;23.15;;;7.60;99.90;;;;;;2068368;28;20056;-76
2022/11/02 03:15:15;;;;;;;42.17;23.20;;;7.60;99.90;;;;;;2072186;28;20068;-75
2022/11/02 03:16:29;;;;;;;41.33;22.65;;;7.60;99.90;;;;;;2066126;28;20539;-75
2022/11/02 03:17:35;;;;;;;45.55;24.13;;;7.50;99.90;;;;;;2065832;28;20507;-75
2022/11/02 03:18:49;;;;;;;45.67;24.77;;;7.50;99.90;;;;;;2064969;28;20030;-75
2022/11/02 03:20:13;;;;;;;44.25;24.30;;;7.50;99.90;;;;;;2065950;28;20085;-75
2022/11/02 03:21:37;;;;;;;42.72;23.27;;;7.50;99.90;;;;;;2061707;28;20040;-75
2022/11/02 03:23:11;;;;;;;47.25;24.15;;;7.60;99.90;;;;;;2075452;28;20033;-75
2022/11/02 03:24:39;;;;;;;46.60;24.50;;;7.50;99.90;;;;;;2072233;28;20034;-75
2022/11/02 03:26:03;;;;;;;43.78;23.60;;;7.50;99.90;;;;;;2067763;28;20065;-75
2022/11/02 03:27:14;;;;;;;40.90;23.15;;;7.50;99.90;;;;;;2067785;28;20096;-75
2022/11/02 03:28:31;;;;;;;40.38;22.88;;;7.40;99.90;;;;;;2065122;28;20189;-75
2022/11/02 03:30:01;;;;;;;43.28;23.42;;;7.40;99.90;;;;;;2072225;28;20038;-75
2022/11/02 03:31:15;;;;;;;40.20;22.50;;;7.40;99.90;;;;;;2070787;28;20049;-76
2022/11/02 03:32:30;;;;;;;38.72;22.48;;;7.40;99.90;;;;;;2074313;28;20014;-75
2022/11/02 03:33:51;;;;;;;39.75;22.63;;;7.40;99.90;;;;;;2073184;28;20091;-74
2022/11/02 03:34:56;;;;;;;39.67;22.42;;;7.40;99.90;;;;;;2067723;28;20030;-74
2022/11/02 03:36:14;;;;;;;43.35;22.90;;;7.40;99.90;;;;;;2066625;28;20033;-76
2022/11/02 03:37:21;;;;;;;40.03;21.40;;;7.40;99.90;;;;;;2067737;28;20046;-76
2022/11/02 03:38:35;;;;;;;42.22;22.35;;;7.40;99.90;;;;;;2073627;28;20026;-76
2022/11/02 03:40:01;;;;;;;45.03;22.60;;;7.40;99.90;;;;;;2075197;28;20397;-76
2022/11/02 03:41:03;;;;;;;43.65;23.20;;;7.40;99.90;;;;;;2064007;28;20050;-77
2022/11/02 03:42:08;;;;;;;44.30;23.70;;;7.40;99.90;;;;;;2057318;28;20022;-77
2022/11/02 03:43:13;;;;;;;43.85;23.00;;;7.40;99.90;;;;;;2065084;28;20105;-76
2022/11/02 03:44:21;;;;;;;42.67;22.73;;;7.40;99.90;;;;;;2072029;28;20033;-76
2022/11/02 03:45:26;;;;;;;47.58;24.45;;;7.40;99.90;;;;;;2073193;28;20034;-76
2022/11/02 03:46:28;;;;;;;43.45;23.30;;;7.40;99.90;;;;;;2065299;28;20058;-76
2022/11/02 03:47:32;;;;;;;45.15;23.73;;;7.40;99.90;;;;;;2048656;28;20058;-75
2022/11/02 03:48:43;;;;;;;42.70;23.17;;;7.40;99.90;;;;;;2057556;28;20022;-76
2022/11/02 03:49:49;;;;;;;48.75;23.92;;;7.40;99.90;;;;;;2067479;28;20035;-75
2022/11/02 03:50:52;;;;;;;45.75;23.77;;;7.40;99.90;;;;;;2064468;28;20556;-74
2022/11/02 03:52:00;;;;;;;41.58;22.88;;;7.40;99.90;;;;;;2057877;28;20088;-77
2022/11/02 03:53:08;;;;;;;41.88;22.60;;;7.40;99.90;;;;;;2072924;28;20072;-76
2022/11/02 03:54:18;;;;;;;41.88;21.85;;;7.40;99.90;;;;;;2080879;28;20065;-76
2022/11/02 03:55:32;;;;;;;41.55;21.10;;;7.40;99.90;;;;;;2079976;28;20073;-75
2022/11/02 03:56:39;;;;;;;39.13;20.70;;;7.40;99.90;;;;;;2072850;28;20356;-75
2022/11/02 03:57:45;;;;;;;37.70;21.38;;;7.40;99.90;;;;;;2080730;28;20021;-76
2022/11/02 03:58:47;;;;;;;38.70;20.73;;;7.40;99.90;;;;;;2072931;28;20022;-75
2022/11/02 03:59:48;;;;;;;40.15;21.48;;;7.40;99.90;;;;;;2064323;28;20508;-76
2022/11/02 04:00:54;;;;;;;39.13;21.50;;;7.40;99.90;;;;;;2056692;28;20141;-76
2022/11/02 04:01:55;;;;;;;37.85;20.88;;;7.40;99.90;;;;;;2057989;28;20085;-76
2022/11/02 04:03:02;;;;;;;39.22;21.20;;;7.40;99.90;;;;;;2056594;28;20032;-76
2022/11/02 04:04:05;;;;;;;42.00;21.63;;;7.40;99.90;;;;;;2066733;28;20034;-76
2022/11/02 04:05:07;;;;;;;35.90;20.63;;;7.40;99.90;;;;;;2072793;28;20096;-76
2022/11/02 04:06:08;;;;;;;36.83;20.83;;;7.40;99.90;;;;;;2065043;28;20549;-76
2022/11/02 04:07:09;;;;;;;45.47;23.00;;;7.40;99.90;;;;;;2078503;28;20091;-76
2022/11/02 04:08:23;;;;;;;41.10;22.80;;;7.40;99.90;;;;;;2079677;28;20035;-76
2022/11/02 04:09:30;;;;;;;42.75;21.58;;;7.50;99.90;;;;;;2073449;28;20037;-75
2022/11/02 04:10:31;;;;;;;38.88;21.85;;;7.50;99.90;;;;;;2068475;28;20031;-75
2022/11/02 04:15:32;;;;;;;40.63;21.02;;;7.40;99.90;;;;;;2085535;28;20029;-76
2022/11/02 04:16:33;;;;;;;41.08;22.40;;;7.40;99.90;;;;;;2077668;28;20072;-76
2022/11/02 04:19:27;;;;;;;44.50;22.27;;;7.40;99.90;;;;;;2066177;28;20481;-77
2022/11/02 04:20:32;;;;;;;48.08;24.13;;;7.40;99.90;;;;;;2058492;28;20031;-76
2022/11/02 04:21:32;;;;;;;46.25;23.30;;;7.40;99.90;;;;;;2050183;28;20074;-76
2022/11/02 04:25:17;;;;;;;51.72;25.30;;;7.40;99.90;;;;;;2066998;28;20089;-76
2022/11/02 04:26:38;;;;;;;50.95;24.63;;;7.30;99.90;;;;;;2063092;28;20550;-75
2022/11/02 04:27:38;;;;;;;42.33;22.65;;;7.30;99.90;;;;;;2073635;28;20046;-75
2022/11/02 04:28:40;;;;;;;45.85;24.13;;;7.40;99.90;;;;;;2056650;28;20034;-76
2022/11/02 04:29:41;;;;;;;44.78;22.77;;;7.30;99.90;;;;;;2057209;28;20062;-75
2022/11/02 04:30:42;;;;;;;47.70;23.90;;;7.30;99.90;;;;;;2056662;28;20031;-75
2022/11/02 04:31:43;;;;;;;46.17;23.38;;;7.30;99.90;;;;;;2064783;28;20030;-75
2022/11/02 04:34:11;;;;;;;44.92;22.80;;;7.20;99.90;;;;;;2068025;28;20045;-76
2022/11/02 04:35:13;;;;;;;45.25;23.25;;;7.20;99.90;;;;;;2065064;28;20029;-75
2022/11/02 04:36:15;;;;;;;45.30;23.10;;;7.20;99.90;;;;;;2064670;28;20093;-76
2022/11/02 04:38:39;;;;;;;46.03;23.63;;;7.20;99.90;;;;;;2067354;28;20142;-76
2022/11/02 04:39:40;;;;;;;52.10;25.88;;;7.20;99.90;;;;;;2064786;28;20086;-75
2022/11/02 04:40:40;;;;;;;43.97;23.90;;;7.30;99.90;;;;;;2064249;28;20022;-75
2022/11/02 04:41:41;;;;;;;43.47;22.85;;;7.20;99.90;;;;;;2064943;28;20072;-75
2022/11/02 04:42:56;;;;;;;47.47;23.73;;;7.20;99.90;;;;;;2066404;28;20046;-76
2022/11/02 04:43:57;;;;;;;44.83;23.58;;;7.20;99.90;;;;;;2065975;28;20075;-76
2022/11/02 04:44:57;;;;;;;49.45;24.77;;;7.20;99.90;;;;;;2063808;28;20022;-75
2022/11/02 04:45:58;;;;;;;50.90;25.13;;;7.20;99.90;;;;;;2072533;28;20431;-76
2022/11/02 04:46:59;;;;;;;48.20;24.58;;;7.20;99.90;;;;;;2063857;28;20037;-76
2022/11/02 04:48:06;;;;;;;45.80;24.00;;;7.20;99.90;;;;;;2064513;28;20122;-75
2022/11/02 04:49:08;;;;;;;45.25;24.23;;;7.20;99.90;;;;;;2056882;28;20070;-75
2022/11/02 04:50:09;;;;;;;44.83;23.83;;;7.20;99.90;;;;;;2057066;28;20034;-75
2022/11/02 04:51:10;;;;;;;47.30;24.52;;;7.10;99.90;;;;;;2056749;28;20430;-75
2022/11/02 04:52:12;;;;;;;46.67;24.17;;;7.10;99.90;;;;;;2065071;28;20026;-75
2022/11/02 04:53:18;;;;;;;46.42;23.45;;;7.10;99.90;;;;;;2065689;28;20030;-75
2022/11/02 04:54:19;;;;;;;41.65;22.60;;;7.10;99.90;;;;;;2064144;28;20039;-76
2022/11/02 04:55:24;;;;;;;40.90;22.85;;;7.10;99.90;;;;;;2056687;28;20027;-75
2022/11/02 04:56:28;;;;;;;42.83;22.70;;;7.10;99.90;;;;;;2057390;28;20035;-75
2022/11/02 04:57:30;;;;;;;41.67;22.40;;;7.10;99.90;;;;;;2056643;28;20031;-76
2022/11/02 04:58:33;;;;;;;44.40;22.75;;;7.10;99.90;;;;;;2065127;28;20027;-75
2022/11/02 04:59:37;;;;;;;48.17;23.50;;;7.10;99.90;;;;;;2074081;28;20049;-75
2022/11/02 05:00:38;;;;;;;47.05;23.25;;;7.20;99.90;;;;;;2066237;28;20022;-75
2022/11/02 05:01:41;;;;;;;46.80;23.42;;;7.20;99.90;;;;;;2066574;28;20473;-75
2022/11/02 05:02:46;;;;;;;44.15;22.30;;;7.20;99.90;;;;;;2074419;28;20409;-76
2022/11/02 05:03:48;;;;;;;45.25;21.85;;;7.20;99.90;;;;;;2084024;28;20041;-77
2022/11/02 05:04:49;;;;;;;41.65;21.48;;;7.20;99.90;;;;;;2076233;28;20058;-77
2022/11/02 05:05:55;;;;;;;41.58;21.58;;;7.20;99.90;;;;;;2061174;28;20031;-77
2022/11/02 05:06:59;;;;;;;39.50;20.35;;;7.20;99.90;;;;;;2069794;28;20052;-76
2022/11/02 05:08:01;;;;;;;41.72;22.20;;;7.20;99.90;;;;;;2068140;28;20022;-75
2022/11/02 05:09:02;;;;;;;39.63;20.90;;;7.20;99.90;;;;;;2069645;28;20563;-78
2022/11/02 05:10:03;;;;;;;40.00;20.77;;;7.20;99.90;;;;;;2062441;28;20034;-77
2022/11/02 05:11:04;;;;;;;41.92;20.75;;;7.20;99.90;;;;;;2070158;28;20121;-78
2022/11/02 05:12:06;;;;;;;40.00;20.77;;;7.20;99.90;;;;;;2069739;28;20064;-78
2022/11/02 05:13:09;;;;;;;44.38;22.23;;;7.20;99.90;;;;;;2069914;28;20061;-77
2022/11/02 05:14:10;;;;;;;43.85;21.50;;;7.20;99.90;;;;;;2067591;28;20030;-77
2022/11/02 05:15:11;;;;;;;46.13;22.52;;;7.20;99.90;;;;;;2067028;28;20038;-77
2022/11/02 05:16:15;;;;;;;38.85;20.70;;;7.20;99.90;;;;;;2067969;28;20026;-77
2022/11/02 05:17:16;;;;;;;42.42;21.08;;;7.20;99.90;;;;;;2059113;28;20078;-76
2022/11/02 05:18:17;;;;;;;40.90;20.67;;;7.20;99.90;;;;;;2050760;28;20158;-76
2022/11/02 05:19:18;;;;;;;41.47;20.38;;;7.20;99.90;;;;;;2058510;28;20183;-76
2022/11/02 05:20:18;;;;;;;37.58;19.50;;;7.20;99.90;;;;;;2066962;28;20022;-77
2022/11/02 05:21:19;;;;;;;44.35;21.63;;;7.20;99.90;;;;;;2058591;28;20041;-76
2022/11/02 05:22:21;;;;;;;42.97;21.33;;;7.20;99.90;;;;;;2060204;28;20335;-77
2022/11/02 05:26:05;;;;;;;40.45;20.38;;;7.20;99.90;;;;;;2076436;28;20033;-76
2022/11/02 05:27:10;;;;;;;38.38;19.65;;;7.20;99.90;;;;;;2082419;28;20136;-76
2022/11/02 05:28:12;;;;;;;37.75;19.40;;;7.10;99.90;;;;;;2075178;28;20105;-76
2022/11/02 05:29:13;;;;;;;38.03;18.95;;;7.10;99.90;;;;;;2066396;28;20018;-75
2022/11/02 05:30:14;;;;;;;41.97;20.60;;;7.10;99.90;;;;;;2066598;28;20026;-75
2022/11/02 05:31:16;;;;;;;38.65;20.08;;;7.10;99.90;;;;;;2066516;28;20019;-75
2022/11/02 05:32:17;;;;;;;39.30;20.55;;;7.10;99.90;;;;;;2074256;28;20030;-75
2022/11/02 05:33:19;;;;;;;38.25;20.00;;;7.10;99.90;;;;;;2066561;28;20053;-76
2022/11/02 05:34:20;;;;;;;38.80;19.52;;;7.10;99.90;;;;;;2074072;28;20026;-76
2022/11/02 05:35:22;;;;;;;38.85;19.23;;;7.10;99.90;;;;;;2066536;28;20053;-76
2022/11/02 05:36:22;;;;;;;36.47;19.40;;;7.10;99.90;;;;;;2058730;28;20122;-74
2022/11/02 05:37:25;;;;;;;36.60;19.50;;;7.00;99.90;;;;;;2066342;28;20022;-76
2022/11/02 05:38:27;;;;;;;49.42;22.98;;;7.00;99.90;;;;;;2067028;28;20034;-75
2022/11/02 05:39:28;;;;;;;43.47;21.70;;;7.10;99.90;;;;;;2074864;28;20450;-76
2022/11/02 05:40:30;;;;;;;39.20;20.98;;;7.10;99.90;;;;;;2075157;28;20619;-76
2022/11/02 05:41:31;;;;;;;37.88;20.55;;;7.10;99.90;;;;;;2058824;28;20030;-74
2022/11/02 05:42:33;;;;;;;37.70;19.77;;;7.10;99.90;;;;;;2058175;28;20373;-74
2022/11/02 05:43:34;;;;;;;38.65;19.90;;;7.00;99.90;;;;;;2066001;28;20034;-75
2022/11/02 05:44:36;;;;;;;36.50;19.50;;;7.00;99.90;;;;;;2067052;28;20026;-74
2022/11/02 05:45:37;;;;;;;39.63;20.15;;;7.00;99.90;;;;;;2074795;28;20026;-73
2022/11/02 05:46:38;;;;;;;40.83;20.77;;;7.00;99.90;;;;;;2082798;28;20025;-75
2022/11/02 05:47:38;;;;;;;37.53;19.42;;;7.00;99.90;;;;;;2082127;28;20065;-74